sensor_id;sensor_type;location;lat;lon;timestamp;temperature;humidity
52869;DHT22;39100;53.480;6.158;2023-02-28T00:00:44;6.60;99.90
52869;DHT22;39100;53.480;6.158;2023-02-28T00:03:09;7.20;99.90
52869;DHT22;39100;53.480;6.158;2023-02-28T00:05:35;6.60;99.90
52869;DHT22;39100;53.480;6.158;2023-02-28T00:08:00;6.50;99.90
52869;DHT22;39100;53.480;6.158;2023-02-28T00:10:27;6.50;99.90
52869;DHT22;39100;53.480;6.158;2023-02-28T00:12:53;6.50;99.90
52869;DHT22;39100;53.480;6.158;2023-02-28T00:15:19;6.50;99.90
52869;DHT22;39100;53.480;6.158;2023-02-28T00:17:45;6.50;99.90
52869;DHT22;39100;53.480;6.158;2023-02-28T00:20:11;6.50;99.90
52869;DHT22;39100;53.480;6.158;2023-02-28T00:22:38;6.50;99.90
52869;DHT22;39100;53.480;6.158;2023-02-28T00:25:03;6.50;99.90
52869;DHT22;39100;53.480;6.158;2023-02-28T00:27:29;6.50;99.90
52869;DHT22;39100;53.480;6.158;2023-02-28T00:29:55;6.50;99.90
52869;DHT22;39100;53.480;6.158;2023-02-28T00:32:20;6.50;99.90
52869;DHT22;39100;53.480;6.158;2023-02-28T00:34:46;6.60;99.90
52869;DHT22;39100;53.480;6.158;2023-02-28T00:37:12;6.60;99.90
52869;DHT22;39100;53.480;6.158;2023-02-28T00:39:38;6.50;99.90
52869;DHT22;39100;53.480;6.158;2023-02-28T00:42:04;6.50;99.90
52869;DHT22;39100;53.480;6.158;2023-02-28T00:44:30;6.50;99.90
52869;DHT22;39100;53.480;6.158;2023-02-28T00:46:56;6.60;99.90
52869;DHT22;39100;53.480;6.158;2023-02-28T00:49:22;6.60;99.90
52869;DHT22;39100;53.480;6.158;2023-02-28T00:51:47;6.60;99.90
52869;DHT22;39100;53.480;6.158;2023-02-28T00:54:13;6.60;99.90
52869;DHT22;39100;53.480;6.158;2023-02-28T00:56:38;6.60;99.90
52869;DHT22;39100;53.480;6.158;2023-02-28T00:59:04;6.60;99.90
52869;DHT22;39100;53.480;6.158;2023-02-28T01:01:29;6.60;99.90
52869;DHT22;39100;53.480;6.158;2023-02-28T01:03:55;6.60;99.90
52869;DHT22;39100;53.480;6.158;2023-02-28T01:06:20;6.60;99.90
52869;DHT22;39100;53.480;6.158;2023-02-28T01:08:46;6.60;99.90
52869;DHT22;39100;53.480;6.158;2023-02-28T01:11:12;6.60;99.90
52869;DHT22;39100;53.480;6.158;2023-02-28T01:13:38;6.60;99.90
52869;DHT22;39100;53.480;6.158;2023-02-28T01:16:04;6.60;99.90
52869;DHT22;39100;53.480;6.158;2023-02-28T01:18:29;6.60;99.90
52869;DHT22;39100;53.480;6.158;2023-02-28T01:20:56;6.50;99.90
52869;DHT22;39100;53.480;6.158;2023-02-28T01:23:22;6.50;99.90
52869;DHT22;39100;53.480;6.158;2023-02-28T01:25:49;6.50;99.90
52869;DHT22;39100;53.480;6.158;2023-02-28T01:28:17;6.60;99.90
52869;DHT22;39100;53.480;6.158;2023-02-28T01:30:46;6.60;99.90
52869;DHT22;39100;53.480;6.158;2023-02-28T01:33:12;6.50;99.90
52869;DHT22;39100;53.480;6.158;2023-02-28T01:35:37;6.60;99.90
52869;DHT22;39100;53.480;6.158;2023-02-28T01:38:03;6.60;99.90
52869;DHT22;39100;53.480;6.158;2023-02-28T01:40:28;6.60;99.90
52869;DHT22;39100;53.480;6.158;2023-02-28T01:42:55;6.60;99.90
52869;DHT22;39100;53.480;6.158;2023-02-28T01:45:27;6.60;99.90
52869;DHT22;39100;53.480;6.158;2023-02-28T01:48:07;6.60;99.90
52869;DHT22;39100;53.480;6.158;2023-02-28T01:50:37;6.60;99.90
52869;DHT22;39100;53.480;6.158;2023-02-28T01:53:04;6.60;99.90
52869;DHT22;39100;53.480;6.158;2023-02-28T01:55:31;6.60;99.90
52869;DHT22;39100;53.480;6.158;2023-02-28T01:57:58;6.60;99.90
52869;DHT22;39100;53.480;6.158;2023-02-28T02:00:26;6.60;99.90
52869;DHT22;39100;53.480;6.158;2023-02-28T02:02:56;6.90;99.90
52869;DHT22;39100;53.480;6.158;2023-02-28T02:05:23;6.70;99.90
52869;DHT22;39100;53.480;6.158;2023-02-28T02:07:51;6.70;99.90
52869;DHT22;39100;53.480;6.158;2023-02-28T02:10:19;6.70;99.90
52869;DHT22;39100;53.480;6.158;2023-02-28T02:13:02;6.70;99.90
52869;DHT22;39100;53.480;6.158;2023-02-28T02:15:32;6.70;99.90
52869;DHT22;39100;53.480;6.158;2023-02-28T02:18:01;6.70;99.90
52869;DHT22;39100;53.480;6.158;2023-02-28T02:20:38;6.70;99.90
52869;DHT22;39100;53.480;6.158;2023-02-28T02:25:54;6.70;99.90
52869;DHT22;39100;53.480;6.158;2023-02-28T02:33:23;6.70;99.90
52869;DHT22;39100;53.480;6.158;2023-02-28T02:35:56;6.70;99.90
52869;DHT22;39100;53.480;6.158;2023-02-28T02:43:32;6.80;99.90
52869;DHT22;39100;53.480;6.158;2023-02-28T02:45:59;6.70;99.90
52869;DHT22;39100;53.480;6.158;2023-02-28T02:48:27;6.70;99.90
52869;DHT22;39100;53.480;6.158;2023-02-28T02:50:55;6.80;99.90
52869;DHT22;39100;53.480;6.158;2023-02-28T02:53:24;6.80;99.90
52869;DHT22;39100;53.480;6.158;2023-02-28T02:55:51;6.70;99.90
52869;DHT22;39100;53.480;6.158;2023-02-28T02:58:20;6.70;99.90
52869;DHT22;39100;53.480;6.158;2023-02-28T03:00:47;6.80;99.90
52869;DHT22;39100;53.480;6.158;2023-02-28T03:03:14;6.70;99.90
52869;DHT22;39100;53.480;6.158;2023-02-28T03:05:51;6.80;99.90
52869;DHT22;39100;53.480;6.158;2023-02-28T03:08:20;6.80;99.90
52869;DHT22;39100;53.480;6.158;2023-02-28T03:10:46;6.80;99.90
52869;DHT22;39100;53.480;6.158;2023-02-28T03:18:27;6.80;99.90
52869;DHT22;39100;53.480;6.158;2023-02-28T03:23:38;6.80;99.90
52869;DHT22;39100;53.480;6.158;2023-02-28T03:26:07;6.80;99.90
52869;DHT22;39100;53.480;6.158;2023-02-28T03:31:21;6.80;99.90
52869;DHT22;39100;53.480;6.158;2023-02-28T03:33:51;6.80;99.90
52869;DHT22;39100;53.480;6.158;2023-02-28T03:36:21;6.80;99.90
52869;DHT22;39100;53.480;6.158;2023-02-28T03:38:52;6.80;99.90
52869;DHT22;39100;53.480;6.158;2023-02-28T03:41:21;6.80;99.90
52869;DHT22;39100;53.480;6.158;2023-02-28T03:43:49;6.80;99.90
52869;DHT22;39100;53.480;6.158;2023-02-28T03:46:16;6.80;99.90
52869;DHT22;39100;53.480;6.158;2023-02-28T03:48:45;6.90;99.90
52869;DHT22;39100;53.480;6.158;2023-02-28T03:51:15;6.90;99.90
52869;DHT22;39100;53.480;6.158;2023-02-28T03:53:44;6.90;99.90
52869;DHT22;39100;53.480;6.158;2023-02-28T03:56:16;6.90;99.90
52869;DHT22;39100;53.480;6.158;2023-02-28T03:59:00;6.90;99.90
52869;DHT22;39100;53.480;6.158;2023-02-28T04:01:27;6.80;99.90
52869;DHT22;39100;53.480;6.158;2023-02-28T04:03:54;6.80;99.90
52869;DHT22;39100;53.480;6.158;2023-02-28T04:06:20;7.20;99.90
52869;DHT22;39100;53.480;6.158;2023-02-28T04:08:47;6.80;99.90
52869;DHT22;39100;53.480;6.158;2023-02-28T04:13:44;7.00;99.90
52869;DHT22;39100;53.480;6.158;2023-02-28T04:16:10;6.90;99.90
52869;DHT22;39100;53.480;6.158;2023-02-28T04:18:37;7.00;99.90
52869;DHT22;39100;53.480;6.158;2023-02-28T04:21:03;6.90;99.90
52869;DHT22;39100;53.480;6.158;2023-02-28T04:23:29;6.90;99.90
52869;DHT22;39100;53.480;6.158;2023-02-28T04:25:55;6.90;99.90
52869;DHT22;39100;53.480;6.158;2023-02-28T04:28:21;6.90;99.90
52869;DHT22;39100;53.480;6.158;2023-02-28T04:30:46;6.90;99.90
52869;DHT22;39100;53.480;6.158;2023-02-28T04:33:12;6.90;99.90
52869;DHT22;39100;53.480;6.158;2023-02-28T04:35:37;7.00;99.90
52869;DHT22;39100;53.480;6.158;2023-02-28T04:38:03;7.00;99.90
52869;DHT22;39100;53.480;6.158;2023-02-28T04:40:28;7.00;99.90
52869;DHT22;39100;53.480;6.158;2023-02-28T04:42:54;6.90;99.90
52869;DHT22;39100;53.480;6.158;2023-02-28T04:45:19;6.90;99.90
52869;DHT22;39100;53.480;6.158;2023-02-28T04:47:45;6.90;99.90
52869;DHT22;39100;53.480;6.158;2023-02-28T04:50:10;7.00;99.90
52869;DHT22;39100;53.480;6.158;2023-02-28T04:52:36;6.90;99.90
52869;DHT22;39100;53.480;6.158;2023-02-28T04:55:01;6.90;99.90
52869;DHT22;39100;53.480;6.158;2023-02-28T04:57:27;6.90;99.90
52869;DHT22;39100;53.480;6.158;2023-02-28T04:59:52;6.90;99.90
52869;DHT22;39100;53.480;6.158;2023-02-28T05:02:18;6.90;99.90
52869;DHT22;39100;53.480;6.158;2023-02-28T05:04:45;6.90;99.90
52869;DHT22;39100;53.480;6.158;2023-02-28T05:07:10;6.90;99.90
52869;DHT22;39100;53.480;6.158;2023-02-28T05:09:36;6.90;99.90
52869;DHT22;39100;53.480;6.158;2023-02-28T05:12:01;6.90;99.90
52869;DHT22;39100;53.480;6.158;2023-02-28T05:14:27;6.90;99.90
52869;DHT22;39100;53.480;6.158;2023-02-28T05:16:53;7.00;99.90
52869;DHT22;39100;53.480;6.158;2023-02-28T05:19:18;7.00;99.90
52869;DHT22;39100;53.480;6.158;2023-02-28T05:21:53;7.00;99.90
52869;DHT22;39100;53.480;6.158;2023-02-28T05:24:19;7.00;99.90
52869;DHT22;39100;53.480;6.158;2023-02-28T05:26:48;6.90;99.90
52869;DHT22;39100;53.480;6.158;2023-02-28T05:29:14;6.90;99.90
52869;DHT22;39100;53.480;6.158;2023-02-28T05:31:39;6.90;99.90
52869;DHT22;39100;53.480;6.158;2023-02-28T05:34:05;6.90;99.90
52869;DHT22;39100;53.480;6.158;2023-02-28T05:36:30;6.90;99.90
52869;DHT22;39100;53.480;6.158;2023-02-28T05:38:56;6.90;99.90
52869;DHT22;39100;53.480;6.158;2023-02-28T05:41:21;6.90;99.90
52869;DHT22;39100;53.480;6.158;2023-02-28T05:43:47;6.90;99.90
52869;DHT22;39100;53.480;6.158;2023-02-28T05:46:13;6.90;99.90
52869;DHT22;39100;53.480;6.158;2023-02-28T05:48:39;6.90;99.90
52869;DHT22;39100;53.480;6.158;2023-02-28T05:51:05;6.90;99.90
52869;DHT22;39100;53.480;6.158;2023-02-28T05:53:30;6.90;99.90
52869;DHT22;39100;53.480;6.158;2023-02-28T05:55:56;6.90;99.90
52869;DHT22;39100;53.480;6.158;2023-02-28T05:58:21;6.80;99.90
52869;DHT22;39100;53.480;6.158;2023-02-28T06:00:47;6.80;99.90
52869;DHT22;39100;53.480;6.158;2023-02-28T06:03:13;6.80;99.90
52869;DHT22;39100;53.480;6.158;2023-02-28T06:05:38;6.80;99.90
52869;DHT22;39100;53.480;6.158;2023-02-28T06:08:04;7.10;99.90
52869;DHT22;39100;53.480;6.158;2023-02-28T06:10:32;6.80;99.90
52869;DHT22;39100;53.480;6.158;2023-02-28T06:12:59;6.80;99.90
52869;DHT22;39100;53.480;6.158;2023-02-28T06:15:25;6.80;99.90
52869;DHT22;39100;53.480;6.158;2023-02-28T06:17:50;6.80;99.90
52869;DHT22;39100;53.480;6.158;2023-02-28T06:20:17;6.80;99.90
52869;DHT22;39100;53.480;6.158;2023-02-28T06:22:43;6.80;99.90
52869;DHT22;39100;53.480;6.158;2023-02-28T06:25:09;6.80;99.90
52869;DHT22;39100;53.480;6.158;2023-02-28T06:27:34;6.80;99.90
52869;DHT22;39100;53.480;6.158;2023-02-28T06:30:00;6.80;99.90
52869;DHT22;39100;53.480;6.158;2023-02-28T06:32:25;6.80;99.90
52869;DHT22;39100;53.480;6.158;2023-02-28T06:34:51;6.80;99.90
52869;DHT22;39100;53.480;6.158;2023-02-28T06:37:17;6.80;99.90
52869;DHT22;39100;53.480;6.158;2023-02-28T06:39:42;6.80;99.90
52869;DHT22;39100;53.480;6.158;2023-02-28T06:42:08;6.80;99.90
52869;DHT22;39100;53.480;6.158;2023-02-28T06:44:33;6.80;99.90
52869;DHT22;39100;53.480;6.158;2023-02-28T06:47:03;6.80;99.90
52869;DHT22;39100;53.480;6.158;2023-02-28T06:49:30;6.70;99.90
52869;DHT22;39100;53.480;6.158;2023-02-28T06:51:55;6.90;99.90
52869;DHT22;39100;53.480;6.158;2023-02-28T06:54:21;6.70;99.90
52869;DHT22;39100;53.480;6.158;2023-02-28T06:56:46;6.60;99.90
52869;DHT22;39100;53.480;6.158;2023-02-28T06:59:12;6.60;99.90
52869;DHT22;39100;53.480;6.158;2023-02-28T07:01:38;6.60;99.90
52869;DHT22;39100;53.480;6.158;2023-02-28T07:04:04;6.50;99.90
52869;DHT22;39100;53.480;6.158;2023-02-28T07:06:30;6.30;99.90
52869;DHT22;39100;53.480;6.158;2023-02-28T07:08:56;6.10;99.90
52869;DHT22;39100;53.480;6.158;2023-02-28T07:11:22;6.00;99.90
52869;DHT22;39100;53.480;6.158;2023-02-28T07:13:48;5.80;99.90
52869;DHT22;39100;53.480;6.158;2023-02-28T07:16:14;5.70;99.90
52869;DHT22;39100;53.480;6.158;2023-02-28T07:18:39;5.50;99.90
52869;DHT22;39100;53.480;6.158;2023-02-28T07:21:06;5.40;99.90
52869;DHT22;39100;53.480;6.158;2023-02-28T07:23:32;5.30;99.90
52869;DHT22;39100;53.480;6.158;2023-02-28T07:25:58;5.30;99.90
52869;DHT22;39100;53.480;6.158;2023-02-28T07:28:23;5.20;99.90
52869;DHT22;39100;53.480;6.158;2023-02-28T07:30:50;5.20;99.90
52869;DHT22;39100;53.480;6.158;2023-02-28T07:33:15;5.20;99.90
52869;DHT22;39100;53.480;6.158;2023-02-28T07:35:41;5.20;99.90
52869;DHT22;39100;53.480;6.158;2023-02-28T07:38:06;5.10;99.90
52869;DHT22;39100;53.480;6.158;2023-02-28T07:40:35;5.10;99.90
52869;DHT22;39100;53.480;6.158;2023-02-28T07:43:01;5.10;99.90
52869;DHT22;39100;53.480;6.158;2023-02-28T07:45:27;5.10;99.90
52869;DHT22;39100;53.480;6.158;2023-02-28T07:47:54;5.10;99.90
52869;DHT22;39100;53.480;6.158;2023-02-28T07:50:20;5.00;99.90
52869;DHT22;39100;53.480;6.158;2023-02-28T07:52:45;5.00;99.90
52869;DHT22;39100;53.480;6.158;2023-02-28T07:55:11;4.90;99.90
52869;DHT22;39100;53.480;6.158;2023-02-28T07:57:36;4.90;99.90
52869;DHT22;39100;53.480;6.158;2023-02-28T08:00:06;4.90;99.90
52869;DHT22;39100;53.480;6.158;2023-02-28T08:02:32;4.80;99.90
52869;DHT22;39100;53.480;6.158;2023-02-28T08:04:57;4.70;99.90
52869;DHT22;39100;53.480;6.158;2023-02-28T08:07:23;4.70;99.90
52869;DHT22;39100;53.480;6.158;2023-02-28T08:09:48;4.70;99.90
52869;DHT22;39100;53.480;6.158;2023-02-28T08:12:14;4.70;99.90
52869;DHT22;39100;53.480;6.158;2023-02-28T08:14:40;4.60;99.90
52869;DHT22;39100;53.480;6.158;2023-02-28T08:17:05;4.60;99.90
52869;DHT22;39100;53.480;6.158;2023-02-28T08:19:31;4.60;99.90
52869;DHT22;39100;53.480;6.158;2023-02-28T08:21:56;4.60;99.90
52869;DHT22;39100;53.480;6.158;2023-02-28T08:24:22;4.60;99.90
52869;DHT22;39100;53.480;6.158;2023-02-28T08:26:47;4.60;99.90
52869;DHT22;39100;53.480;6.158;2023-02-28T08:29:13;4.60;99.90
52869;DHT22;39100;53.480;6.158;2023-02-28T08:31:38;4.60;99.90
52869;DHT22;39100;53.480;6.158;2023-02-28T08:34:06;4.70;99.90
52869;DHT22;39100;53.480;6.158;2023-02-28T08:36:32;4.80;99.90
52869;DHT22;39100;53.480;6.158;2023-02-28T08:38:57;4.90;99.90
52869;DHT22;39100;53.480;6.158;2023-02-28T08:41:24;4.90;99.90
52869;DHT22;39100;53.480;6.158;2023-02-28T08:43:50;5.10;99.90
52869;DHT22;39100;53.480;6.158;2023-02-28T08:46:15;5.20;99.90
52869;DHT22;39100;53.480;6.158;2023-02-28T08:48:41;5.40;99.90
52869;DHT22;39100;53.480;6.158;2023-02-28T08:51:08;5.50;99.90
52869;DHT22;39100;53.480;6.158;2023-02-28T08:53:38;5.80;99.90
52869;DHT22;39100;53.480;6.158;2023-02-28T08:56:08;6.00;99.90
52869;DHT22;39100;53.480;6.158;2023-02-28T08:58:34;6.10;99.90
52869;DHT22;39100;53.480;6.158;2023-02-28T09:01:00;6.20;99.90
52869;DHT22;39100;53.480;6.158;2023-02-28T09:03:25;6.30;99.90
52869;DHT22;39100;53.480;6.158;2023-02-28T09:05:56;6.50;99.90
52869;DHT22;39100;53.480;6.158;2023-02-28T09:08:22;6.60;99.90
52869;DHT22;39100;53.480;6.158;2023-02-28T09:10:47;6.70;99.90
52869;DHT22;39100;53.480;6.158;2023-02-28T09:13:13;6.90;99.90
52869;DHT22;39100;53.480;6.158;2023-02-28T09:15:39;7.10;99.90
52869;DHT22;39100;53.480;6.158;2023-02-28T09:18:04;7.30;99.90
52869;DHT22;39100;53.480;6.158;2023-02-28T09:20:30;7.30;99.90
52869;DHT22;39100;53.480;6.158;2023-02-28T09:22:55;7.30;99.90
52869;DHT22;39100;53.480;6.158;2023-02-28T09:25:21;7.30;99.90
52869;DHT22;39100;53.480;6.158;2023-02-28T09:27:46;7.20;99.90
52869;DHT22;39100;53.480;6.158;2023-02-28T09:30:12;7.10;99.90
52869;DHT22;39100;53.480;6.158;2023-02-28T09:32:37;7.00;99.90
52869;DHT22;39100;53.480;6.158;2023-02-28T09:35:03;6.90;99.90
52869;DHT22;39100;53.480;6.158;2023-02-28T09:37:29;6.70;99.90
52869;DHT22;39100;53.480;6.158;2023-02-28T09:39:56;6.80;99.90
52869;DHT22;39100;53.480;6.158;2023-02-28T09:42:22;6.80;99.90
52869;DHT22;39100;53.480;6.158;2023-02-28T09:44:49;6.80;99.90
52869;DHT22;39100;53.480;6.158;2023-02-28T09:47:26;6.70;99.90
52869;DHT22;39100;53.480;6.158;2023-02-28T09:49:52;6.70;99.90
52869;DHT22;39100;53.480;6.158;2023-02-28T09:52:20;6.70;99.90
52869;DHT22;39100;53.480;6.158;2023-02-28T09:54:46;6.60;99.90
52869;DHT22;39100;53.480;6.158;2023-02-28T10:02:30;6.60;99.90
52869;DHT22;39100;53.480;6.158;2023-02-28T10:05:35;6.70;99.90
52869;DHT22;39100;53.480;6.158;2023-02-28T10:08:13;6.50;99.90
52869;DHT22;39100;53.480;6.158;2023-02-28T10:10:40;6.40;99.90
52869;DHT22;39100;53.480;6.158;2023-02-28T10:13:11;6.50;99.90
52869;DHT22;39100;53.480;6.158;2023-02-28T10:15:38;6.50;99.90
52869;DHT22;39100;53.480;6.158;2023-02-28T10:18:04;6.50;99.90
52869;DHT22;39100;53.480;6.158;2023-02-28T10:20:32;6.50;99.90
52869;DHT22;39100;53.480;6.158;2023-02-28T10:23:10;6.60;99.90
52869;DHT22;39100;53.480;6.158;2023-02-28T10:25:37;6.60;99.90
52869;DHT22;39100;53.480;6.158;2023-02-28T10:28:13;6.70;99.90
52869;DHT22;39100;53.480;6.158;2023-02-28T10:30:40;6.90;99.90
52869;DHT22;39100;53.480;6.158;2023-02-28T10:33:08;6.90;99.90
52869;DHT22;39100;53.480;6.158;2023-02-28T10:35:40;7.10;99.90
52869;DHT22;39100;53.480;6.158;2023-02-28T10:38:10;7.30;99.90
52869;DHT22;39100;53.480;6.158;2023-02-28T10:40:39;7.50;99.90
52869;DHT22;39100;53.480;6.158;2023-02-28T10:43:06;7.50;99.90
52869;DHT22;39100;53.480;6.158;2023-02-28T10:45:56;7.70;99.90
52869;DHT22;39100;53.480;6.158;2023-02-28T10:55:40;7.90;99.90
52869;DHT22;39100;53.480;6.158;2023-02-28T11:01:00;8.10;99.90
52869;DHT22;39100;53.480;6.158;2023-02-28T11:03:34;8.10;99.90
52869;DHT22;39100;53.480;6.158;2023-02-28T11:06:04;8.00;99.90
52869;DHT22;39100;53.480;6.158;2023-02-28T11:08:30;7.90;99.90
52869;DHT22;39100;53.480;6.158;2023-02-28T11:10:56;8.00;99.90
52869;DHT22;39100;53.480;6.158;2023-02-28T11:13:28;8.00;99.90
52869;DHT22;39100;53.480;6.158;2023-02-28T11:15:55;8.00;99.90
52869;DHT22;39100;53.480;6.158;2023-02-28T11:18:39;8.00;99.90
52869;DHT22;39100;53.480;6.158;2023-02-28T11:21:06;8.10;99.90
52869;DHT22;39100;53.480;6.158;2023-02-28T11:23:33;8.10;99.90
52869;DHT22;39100;53.480;6.158;2023-02-28T11:26:02;8.10;99.90
52869;DHT22;39100;53.480;6.158;2023-02-28T11:28:33;8.30;99.90
52869;DHT22;39100;53.480;6.158;2023-02-28T11:31:01;8.70;99.90
52869;DHT22;39100;53.480;6.158;2023-02-28T11:33:30;8.90;99.90
52869;DHT22;39100;53.480;6.158;2023-02-28T11:36:31;9.00;99.90
52869;DHT22;39100;53.480;6.158;2023-02-28T11:38:51;9.10;99.90
52869;DHT22;39100;53.480;6.158;2023-02-28T11:44:05;9.20;99.90
52869;DHT22;39100;53.480;6.158;2023-02-28T11:46:44;9.20;99.90
52869;DHT22;39100;53.480;6.158;2023-02-28T11:49:22;9.40;99.90
52869;DHT22;39100;53.480;6.158;2023-02-28T11:51:55;9.50;99.90
52869;DHT22;39100;53.480;6.158;2023-02-28T11:54:35;9.50;99.90
52869;DHT22;39100;53.480;6.158;2023-02-28T12:02:22;9.60;99.90
52869;DHT22;39100;53.480;6.158;2023-02-28T12:10:28;10.60;99.90
52869;DHT22;39100;53.480;6.158;2023-02-28T12:12:59;10.90;99.90
52869;DHT22;39100;53.480;6.158;2023-02-28T12:20:46;11.90;99.90
52869;DHT22;39100;53.480;6.158;2023-02-28T12:25:46;12.50;99.90
52869;DHT22;39100;53.480;6.158;2023-02-28T12:28:14;13.30;99.90
52869;DHT22;39100;53.480;6.158;2023-02-28T12:30:43;14.20;99.90
52869;DHT22;39100;53.480;6.158;2023-02-28T12:33:12;15.10;99.90
52869;DHT22;39100;53.480;6.158;2023-02-28T12:38:19;15.70;99.90
52869;DHT22;39100;53.480;6.158;2023-02-28T12:40:50;15.90;99.90
52869;DHT22;39100;53.480;6.158;2023-02-28T12:43:18;16.00;99.90
52869;DHT22;39100;53.480;6.158;2023-02-28T12:45:46;17.10;99.90
52869;DHT22;39100;53.480;6.158;2023-02-28T12:48:25;17.60;99.90
52869;DHT22;39100;53.480;6.158;2023-02-28T12:50:51;18.00;99.90
52869;DHT22;39100;53.480;6.158;2023-02-28T12:53:24;17.40;99.90
52869;DHT22;39100;53.480;6.158;2023-02-28T12:55:56;16.30;99.90
52869;DHT22;39100;53.480;6.158;2023-02-28T13:06:32;17.80;99.90
52869;DHT22;39100;53.480;6.158;2023-02-28T13:09:02;18.20;99.90
52869;DHT22;39100;53.480;6.158;2023-02-28T13:11:31;19.20;99.90
52869;DHT22;39100;53.480;6.158;2023-02-28T13:14:00;19.30;99.90
52869;DHT22;39100;53.480;6.158;2023-02-28T13:16:27;19.50;99.90
52869;DHT22;39100;53.480;6.158;2023-02-28T13:18:52;20.50;99.90
52869;DHT22;39100;53.480;6.158;2023-02-28T13:21:33;21.00;99.90
52869;DHT22;39100;53.480;6.158;2023-02-28T13:24:08;20.70;99.90
52869;DHT22;39100;53.480;6.158;2023-02-28T13:34:20;20.40;99.90
52869;DHT22;39100;53.480;6.158;2023-02-28T13:36:46;20.70;99.90
52869;DHT22;39100;53.480;6.158;2023-02-28T13:41:56;21.30;99.80
52869;DHT22;39100;53.480;6.158;2023-02-28T13:44:22;21.70;99.90
52869;DHT22;39100;53.480;6.158;2023-02-28T13:52:03;21.40;99.10
52869;DHT22;39100;53.480;6.158;2023-02-28T13:54:50;21.30;99.20
52869;DHT22;39100;53.480;6.158;2023-02-28T14:00:00;20.10;98.70
52869;DHT22;39100;53.480;6.158;2023-02-28T14:05:06;18.30;99.90
52869;DHT22;39100;53.480;6.158;2023-02-28T14:10:08;17.00;99.90
52869;DHT22;39100;53.480;6.158;2023-02-28T14:12:51;15.90;99.90
52869;DHT22;39100;53.480;6.158;2023-02-28T14:18:01;14.60;99.90
52869;DHT22;39100;53.480;6.158;2023-02-28T14:20:29;14.10;99.90
52869;DHT22;39100;53.480;6.158;2023-02-28T14:23:03;13.90;99.90
52869;DHT22;39100;53.480;6.158;2023-02-28T14:25:45;13.50;99.90
52869;DHT22;39100;53.480;6.158;2023-02-28T14:28:28;13.20;99.90
52869;DHT22;39100;53.480;6.158;2023-02-28T14:31:13;12.80;99.90
52869;DHT22;39100;53.480;6.158;2023-02-28T14:36:38;12.00;99.90
52869;DHT22;39100;53.480;6.158;2023-02-28T14:39:12;11.90;99.90
52869;DHT22;39100;53.480;6.158;2023-02-28T14:41:39;11.80;99.90
52869;DHT22;39100;53.480;6.158;2023-02-28T14:44:24;11.70;99.90
52869;DHT22;39100;53.480;6.158;2023-02-28T14:46:50;11.50;99.90
52869;DHT22;39100;53.480;6.158;2023-02-28T14:49:20;11.40;99.90
52869;DHT22;39100;53.480;6.158;2023-02-28T14:51:47;11.30;99.90
52869;DHT22;39100;53.480;6.158;2023-02-28T14:54:16;11.20;99.90
52869;DHT22;39100;53.480;6.158;2023-02-28T14:56:48;11.00;99.90
52869;DHT22;39100;53.480;6.158;2023-02-28T14:59:30;11.00;99.90
52869;DHT22;39100;53.480;6.158;2023-02-28T15:04:39;10.80;99.90
52869;DHT22;39100;53.480;6.158;2023-02-28T15:07:07;10.60;99.90
52869;DHT22;39100;53.480;6.158;2023-02-28T15:09:33;10.60;99.90
52869;DHT22;39100;53.480;6.158;2023-02-28T15:11:58;10.50;99.90
52869;DHT22;39100;53.480;6.158;2023-02-28T15:14:24;10.40;99.90
52869;DHT22;39100;53.480;6.158;2023-02-28T15:16:57;10.30;99.90
52869;DHT22;39100;53.480;6.158;2023-02-28T15:19:24;10.20;99.90
52869;DHT22;39100;53.480;6.158;2023-02-28T15:21:52;10.10;99.90
52869;DHT22;39100;53.480;6.158;2023-02-28T15:24:21;10.10;99.90
52869;DHT22;39100;53.480;6.158;2023-02-28T15:27:00;10.00;99.90
52869;DHT22;39100;53.480;6.158;2023-02-28T15:29:28;9.90;99.90
52869;DHT22;39100;53.480;6.158;2023-02-28T15:31:55;9.80;99.90
52869;DHT22;39100;53.480;6.158;2023-02-28T15:34:25;9.70;99.90
52869;DHT22;39100;53.480;6.158;2023-02-28T15:36:51;9.50;99.90
52869;DHT22;39100;53.480;6.158;2023-02-28T15:39:21;9.60;99.90
52869;DHT22;39100;53.480;6.158;2023-02-28T15:41:47;9.20;99.90
52869;DHT22;39100;53.480;6.158;2023-02-28T15:44:14;9.10;99.90
52869;DHT22;39100;53.480;6.158;2023-02-28T15:46:41;8.90;99.90
52869;DHT22;39100;53.480;6.158;2023-02-28T15:49:18;8.80;99.90
52869;DHT22;39100;53.480;6.158;2023-02-28T15:51:44;8.70;99.90
52869;DHT22;39100;53.480;6.158;2023-02-28T15:54:14;9.80;99.90
52869;DHT22;39100;53.480;6.158;2023-02-28T15:56:45;8.50;99.90
52869;DHT22;39100;53.480;6.158;2023-02-28T15:59:13;8.40;99.90
52869;DHT22;39100;53.480;6.158;2023-02-28T16:01:40;8.30;99.90
52869;DHT22;39100;53.480;6.158;2023-02-28T16:04:11;8.30;99.90
52869;DHT22;39100;53.480;6.158;2023-02-28T16:06:38;8.10;99.90
52869;DHT22;39100;53.480;6.158;2023-02-28T16:09:05;8.00;99.90
52869;DHT22;39100;53.480;6.158;2023-02-28T16:11:33;7.90;99.90
52869;DHT22;39100;53.480;6.158;2023-02-28T16:14:00;7.80;99.90
52869;DHT22;39100;53.480;6.158;2023-02-28T16:16:25;7.70;99.90
52869;DHT22;39100;53.480;6.158;2023-02-28T16:18:51;7.60;99.90
52869;DHT22;39100;53.480;6.158;2023-02-28T16:21:17;7.50;99.90
52869;DHT22;39100;53.480;6.158;2023-02-28T16:23:43;7.30;99.90
52869;DHT22;39100;53.480;6.158;2023-02-28T16:26:08;7.30;99.90
52869;DHT22;39100;53.480;6.158;2023-02-28T16:28:39;7.20;99.90
52869;DHT22;39100;53.480;6.158;2023-02-28T16:31:05;7.10;99.90
52869;DHT22;39100;53.480;6.158;2023-02-28T16:33:32;7.10;99.90
52869;DHT22;39100;53.480;6.158;2023-02-28T16:35:58;7.00;99.90
52869;DHT22;39100;53.480;6.158;2023-02-28T16:38:23;6.90;99.90
52869;DHT22;39100;53.480;6.158;2023-02-28T16:40:50;6.90;99.90
52869;DHT22;39100;53.480;6.158;2023-02-28T16:43:17;6.90;99.90
52869;DHT22;39100;53.480;6.158;2023-02-28T16:45:44;6.80;99.90
52869;DHT22;39100;53.480;6.158;2023-02-28T16:48:14;6.80;99.90
52869;DHT22;39100;53.480;6.158;2023-02-28T16:50:39;6.70;99.90
52869;DHT22;39100;53.480;6.158;2023-02-28T16:53:05;6.70;99.90
52869;DHT22;39100;53.480;6.158;2023-02-28T16:55:30;6.60;99.90
52869;DHT22;39100;53.480;6.158;2023-02-28T16:58:00;6.50;99.90
52869;DHT22;39100;53.480;6.158;2023-02-28T17:00:26;6.40;99.90
52869;DHT22;39100;53.480;6.158;2023-02-28T17:02:53;6.30;99.90
52869;DHT22;39100;53.480;6.158;2023-02-28T17:05:18;6.30;99.90
52869;DHT22;39100;53.480;6.158;2023-02-28T17:07:44;6.80;99.90
52869;DHT22;39100;53.480;6.158;2023-02-28T17:10:43;6.20;99.90
52869;DHT22;39100;53.480;6.158;2023-02-28T17:13:02;6.20;99.90
52869;DHT22;39100;53.480;6.158;2023-02-28T17:15:27;6.10;99.90
52869;DHT22;39100;53.480;6.158;2023-02-28T17:17:53;6.00;99.90
52869;DHT22;39100;53.480;6.158;2023-02-28T17:20:19;5.90;99.90
52869;DHT22;39100;53.480;6.158;2023-02-28T17:22:48;5.80;99.90
52869;DHT22;39100;53.480;6.158;2023-02-28T17:25:13;5.70;99.90
52869;DHT22;39100;53.480;6.158;2023-02-28T17:27:39;5.70;99.90
52869;DHT22;39100;53.480;6.158;2023-02-28T17:32:36;5.50;99.90
52869;DHT22;39100;53.480;6.158;2023-02-28T17:35:01;5.40;99.90
52869;DHT22;39100;53.480;6.158;2023-02-28T17:37:27;5.30;99.90